createdAt,value
2022-11-21T00:03:20.018Z,6.15
2022-11-21T00:06:44.253Z,5.38
2022-11-21T00:10:07.751Z,6.05
2022-11-21T00:13:30.712Z,5.88
2022-11-21T00:16:57.330Z,5.50
2022-11-21T00:20:22.258Z,6.10
2022-11-21T00:23:47.636Z,5.68
2022-11-21T00:27:10.532Z,5.22
2022-11-21T00:30:33.439Z,5.75
2022-11-21T00:33:56.376Z,5.85
2022-11-21T00:37:19.284Z,5.70
2022-11-21T00:40:45.539Z,6.65
2022-11-21T00:44:08.440Z,5.72
2022-11-21T00:47:31.338Z,6.30
2022-11-21T00:50:54.217Z,4.82
2022-11-21T00:54:17.066Z,6.20
2022-11-21T00:57:41.313Z,4.93
2022-11-21T01:01:06.168Z,5.18
2022-11-21T01:04:32.846Z,5.13
2022-11-21T01:07:55.786Z,5.05
2022-11-21T01:11:21.353Z,6.05
2022-11-21T01:14:45.605Z,5.90
2022-11-21T01:18:08.507Z,5.00
2022-11-21T01:21:32.998Z,5.47
2022-11-21T01:24:56.127Z,5.20
2022-11-21T01:28:19.035Z,4.95
2022-11-21T01:31:43.411Z,5.18
2022-11-21T01:35:07.281Z,4.78
2022-11-21T01:38:30.139Z,5.18
2022-11-21T01:41:53.052Z,5.78
2022-11-21T01:45:49.550Z,4.93
2022-11-21T01:49:17.656Z,5.30
2022-11-21T01:52:40.662Z,4.85
2022-11-21T01:56:04.040Z,5.63
2022-11-21T01:59:30.670Z,5.72
2022-11-21T02:02:59.368Z,5.38
2022-11-21T02:06:25.655Z,5.03
2022-11-21T02:09:52.363Z,5.53
2022-11-21T02:13:15.673Z,4.43
2022-11-21T02:16:38.609Z,4.95
2022-11-21T02:20:04.064Z,5.05
2022-11-21T02:23:37.026Z,5.78
2022-11-21T02:27:01.618Z,4.70
2022-11-21T02:30:24.664Z,5.22
2022-11-21T02:33:47.584Z,5.35
2022-11-21T02:37:11.221Z,5.50
2022-11-21T02:40:38.419Z,5.60
2022-11-21T02:44:08.272Z,5.50
2022-11-21T02:47:32.027Z,4.95
2022-11-21T02:50:54.965Z,5.53
2022-11-21T02:54:17.905Z,5.40
2022-11-21T02:57:40.905Z,5.32
2022-11-21T03:01:05.407Z,4.97
2022-11-21T03:04:29.192Z,5.47
2022-11-21T03:07:52.278Z,5.13
2022-11-21T03:11:15.216Z,5.82
2022-11-21T03:14:38.676Z,5.60
2022-11-21T03:18:03.645Z,4.82
2022-11-21T03:21:26.560Z,5.50
2022-11-21T03:24:49.504Z,5.85
2022-11-21T03:28:12.407Z,5.32
2022-11-21T03:31:35.307Z,5.00
2022-11-21T03:34:59.538Z,5.03
2022-11-21T03:38:22.461Z,5.68
2022-11-21T03:41:45.483Z,5.40
2022-11-21T03:45:09.650Z,5.47
2022-11-21T03:48:32.595Z,5.88
2022-11-21T03:51:56.874Z,5.22
2022-11-21T03:55:19.788Z,4.55
2022-11-21T03:58:43.187Z,5.68
2022-11-21T04:02:06.079Z,6.47
2022-11-21T04:05:28.996Z,4.90
2022-11-21T04:08:53.470Z,5.82
2022-11-21T04:12:16.396Z,5.45
2022-11-21T04:15:39.305Z,4.57
2022-11-21T04:19:02.357Z,5.10
2022-11-21T04:22:25.299Z,4.90
2022-11-21T04:25:49.576Z,5.63
2022-11-21T04:29:12.470Z,5.40
2022-11-21T04:32:35.355Z,5.82
2022-11-21T04:35:58.260Z,5.38
2022-11-21T04:39:21.181Z,6.15
2022-11-21T04:42:46.176Z,5.15
2022-11-21T04:46:09.052Z,6.03
2022-11-21T04:49:32.013Z,5.57
2022-11-21T04:52:56.950Z,5.55
2022-11-21T04:56:19.878Z,5.50
2022-11-21T04:59:44.172Z,5.38
2022-11-21T05:03:07.826Z,5.03
2022-11-21T05:06:30.781Z,5.32
2022-11-21T05:09:53.638Z,5.60
2022-11-21T05:13:21.535Z,5.35
2022-11-21T05:16:45.918Z,5.63
2022-11-21T05:20:10.224Z,5.18
2022-11-21T05:23:33.085Z,5.32
2022-11-21T05:26:56.458Z,5.85
2022-11-21T05:30:19.388Z,5.10
2022-11-21T05:33:43.734Z,5.57
2022-11-21T05:37:06.684Z,5.15
2022-11-21T05:40:29.615Z,4.32
2022-11-21T05:43:52.529Z,4.97
2022-11-21T05:47:15.427Z,4.47
2022-11-21T05:50:39.658Z,4.85
2022-11-21T05:54:02.790Z,5.72
2022-11-21T05:57:25.713Z,5.25
2022-11-21T06:00:48.659Z,5.70
2022-11-21T06:04:10.937Z,6.18
2022-11-21T06:07:35.291Z,6.68
2022-11-21T06:10:58.396Z,7.47
2022-11-21T06:14:21.293Z,6.53
2022-11-21T06:17:44.180Z,6.72
2022-11-21T06:21:08.629Z,6.60
2022-11-21T06:24:32.974Z,8.07
2022-11-21T06:27:55.872Z,7.15
2022-11-21T06:31:20.762Z,6.72
2022-11-21T06:34:43.668Z,6.45
2022-11-21T06:38:06.549Z,6.80
2022-11-21T06:41:31.897Z,6.63
2022-11-21T06:44:54.863Z,6.05
2022-11-21T06:48:17.822Z,6.65
2022-11-21T06:51:40.719Z,6.80
2022-11-21T06:55:03.588Z,6.38
2022-11-21T06:58:27.930Z,6.03
2022-11-21T07:01:50.875Z,6.65
2022-11-21T07:05:13.827Z,6.20
2022-11-21T07:08:37.881Z,6.00
2022-11-21T07:12:21.077Z,6.50
2022-11-21T07:15:46.513Z,5.20
2022-11-21T07:19:09.471Z,5.47
2022-11-21T07:22:32.386Z,5.13
2022-11-21T07:25:55.437Z,13.50
2022-11-21T07:29:18.340Z,23.33
2022-11-21T07:32:42.612Z,26.00
2022-11-21T07:36:06.190Z,15.88
2022-11-21T07:39:29.375Z,13.75
2022-11-21T07:42:52.545Z,13.48
2022-11-21T07:46:15.445Z,13.13
2022-11-21T07:49:39.736Z,11.82
2022-11-21T07:53:04.479Z,13.38
2022-11-21T07:56:27.511Z,10.80
2022-11-21T07:59:50.426Z,10.45
2022-11-21T08:03:14.326Z,11.15
2022-11-21T08:06:38.613Z,10.68
2022-11-21T08:10:01.709Z,9.52
2022-11-21T08:13:24.864Z,9.55
2022-11-21T08:16:47.764Z,9.43
2022-11-21T08:20:11.633Z,9.30
2022-11-21T08:23:35.917Z,9.95
2022-11-21T08:27:00.400Z,9.90
2022-11-21T08:30:23.276Z,7.63
2022-11-21T08:33:46.212Z,9.57
2022-11-21T08:37:09.116Z,8.02
2022-11-21T08:40:33.995Z,9.10
2022-11-21T08:43:56.916Z,7.30
2022-11-21T08:47:20.479Z,7.13
2022-11-21T08:50:43.381Z,9.10
2022-11-21T08:54:06.423Z,8.57
2022-11-21T08:57:31.443Z,7.93
2022-11-21T09:00:54.332Z,8.60
2022-11-21T09:04:17.254Z,9.00
2022-11-21T09:07:41.196Z,9.13
2022-11-21T09:11:06.428Z,10.25
2022-11-21T09:14:49.529Z,8.15
2022-11-21T09:18:12.891Z,11.27
2022-11-21T09:21:35.793Z,8.55
2022-11-21T09:24:58.742Z,9.38
2022-11-21T09:28:21.689Z,10.02
2022-11-21T09:31:46.262Z,10.30
2022-11-21T09:35:09.959Z,15.25
2022-11-21T09:38:32.915Z,11.35
2022-11-21T09:42:04.351Z,13.50
2022-11-21T09:45:31.075Z,12.50
2022-11-21T09:48:59.689Z,12.60
2022-11-21T09:52:27.219Z,12.77
2022-11-21T09:55:52.750Z,12.57
2022-11-21T09:59:28.713Z,13.02
2022-11-21T10:02:52.878Z,14.73
2022-11-21T10:06:20.245Z,14.43
2022-11-21T10:09:56.992Z,13.15
2022-11-21T10:13:32.686Z,13.43
2022-11-21T10:17:03.517Z,13.57
2022-11-21T10:20:47.608Z,11.95
2022-11-21T10:24:28.070Z,14.45
2022-11-21T10:27:56.199Z,13.55
2022-11-21T10:31:20.216Z,12.48
2022-11-21T10:34:43.345Z,11.80
2022-11-21T10:38:23.107Z,12.95
2022-11-21T10:41:52.152Z,14.38
2022-11-21T10:45:20.339Z,10.93
2022-11-21T10:48:43.304Z,12.38
2022-11-21T10:52:11.923Z,11.93
2022-11-21T10:55:34.952Z,12.95
2022-11-21T10:59:00.219Z,12.63
2022-11-21T11:02:25.665Z,12.70
2022-11-21T11:05:57.841Z,12.93
2022-11-21T11:09:30.846Z,12.55
2022-11-21T11:13:38.657Z,12.75
2022-11-21T11:16:55.811Z,10.93
2022-11-21T11:20:32.362Z,12.02
2022-11-21T11:24:06.792Z,10.75
2022-11-21T11:27:30.579Z,10.80
2022-11-21T11:30:55.327Z,11.65
2022-11-21T11:34:20.115Z,12.68
2022-11-21T11:37:44.880Z,10.88
2022-11-21T11:41:19.796Z,12.35
2022-11-21T11:45:07.818Z,11.68
2022-11-21T11:48:31.036Z,12.90
2022-11-21T11:51:57.813Z,10.38
2022-11-21T11:55:27.472Z,9.77
2022-11-21T11:58:56.381Z,10.57
2022-11-21T12:02:24.238Z,10.43
2022-11-21T12:06:00.389Z,11.55
2022-11-21T12:09:33.618Z,10.45
2022-11-21T12:13:04.139Z,10.23
2022-11-21T12:16:28.568Z,10.50
2022-11-21T12:19:54.235Z,10.13
2022-11-21T12:23:18.074Z,11.32
2022-11-21T12:26:52.404Z,9.63
2022-11-21T12:30:29.115Z,9.25
2022-11-21T12:34:04.316Z,8.88
2022-11-21T12:37:38.595Z,9.68
2022-11-21T12:41:33.100Z,9.32
2022-11-21T12:45:11.346Z,11.82
2022-11-21T12:49:06.121Z,11.73
2022-11-21T12:52:52.333Z,11.25
2022-11-21T12:56:26.074Z,12.32
2022-11-21T13:00:04.314Z,12.27
2022-11-21T13:03:39.915Z,14.88
2022-11-21T13:07:04.829Z,14.32
2022-11-21T13:10:28.997Z,13.90
2022-11-21T13:14:05.856Z,15.05
2022-11-21T13:17:44.622Z,11.77
2022-11-21T13:21:28.910Z,11.93
2022-11-21T13:24:59.909Z,12.82
2022-11-21T13:28:38.438Z,11.20
2022-11-21T13:32:41.307Z,13.00
2022-11-21T13:36:07.025Z,12.30
2022-11-21T13:39:31.846Z,12.63
2022-11-21T13:43:33.369Z,13.32
2022-11-21T13:47:02.278Z,11.82
2022-11-21T13:50:41.218Z,13.65
2022-11-21T13:54:26.660Z,12.45
2022-11-21T13:58:01.106Z,12.50
2022-11-21T14:01:52.219Z,13.98
2022-11-21T14:05:29.843Z,14.85
2022-11-21T14:09:21.314Z,15.15
2022-11-21T14:12:49.384Z,13.02
2022-11-21T14:16:25.228Z,13.30
2022-11-21T14:19:49.692Z,14.23
2022-11-21T14:23:18.989Z,14.07
2022-11-21T14:26:47.275Z,13.70
2022-11-21T14:30:31.226Z,12.13
2022-11-21T14:33:58.316Z,13.63
2022-11-21T14:37:22.547Z,13.02
2022-11-21T14:40:45.690Z,13.27
2022-11-21T14:44:20.022Z,14.82
2022-11-21T14:47:48.603Z,13.35
2022-11-21T14:51:16.606Z,12.90
2022-11-21T14:55:06.337Z,12.57
2022-11-21T14:58:28.171Z,13.48
2022-11-21T15:02:00.436Z,13.15
2022-11-21T15:06:00.201Z,12.40
2022-11-21T15:10:25.466Z,13.90
2022-11-21T15:13:01.908Z,12.02
2022-11-21T15:16:25.341Z,10.40
2022-11-21T15:20:11.171Z,12.07
2022-11-21T15:23:36.651Z,13.57
2022-11-21T15:27:00.814Z,12.23
2022-11-21T15:30:26.950Z,12.83
2022-11-21T15:34:27.776Z,14.88
2022-11-21T15:37:50.918Z,11.73
2022-11-21T15:41:28.519Z,11.30
2022-11-21T15:45:01.863Z,13.27
2022-11-21T15:48:24.780Z,11.90
2022-11-21T15:52:06.660Z,11.30
2022-11-21T15:55:32.471Z,9.90
2022-11-21T15:58:55.470Z,11.07
2022-11-21T16:02:18.591Z,11.32
2022-11-21T16:05:41.915Z,10.45
2022-11-21T16:09:05.898Z,11.10
2022-11-21T16:12:30.174Z,12.60
2022-11-21T16:15:53.124Z,11.00
2022-11-21T16:19:16.640Z,9.77
2022-11-21T16:22:44.130Z,10.55
2022-11-21T16:26:11.720Z,11.40
2022-11-21T16:29:36.399Z,9.88
2022-11-21T16:33:02.832Z,8.50
2022-11-21T16:36:28.496Z,10.57
2022-11-21T16:39:52.717Z,9.70
2022-11-21T16:43:15.636Z,9.65
2022-11-21T16:46:43.291Z,8.30
2022-11-21T16:50:07.497Z,8.65
2022-11-21T16:53:31.743Z,7.75
2022-11-21T16:56:54.758Z,10.93
2022-11-21T17:00:19.071Z,8.23
2022-11-21T17:03:44.564Z,9.43
2022-11-21T17:07:07.535Z,8.15
2022-11-21T17:10:33.977Z,8.68
2022-11-21T17:13:59.766Z,9.02
2022-11-21T17:17:22.695Z,9.48
2022-11-21T17:20:46.937Z,8.38
2022-11-21T17:24:09.876Z,6.80
2022-11-21T17:27:32.762Z,9.60
2022-11-21T17:30:55.729Z,8.15
2022-11-21T17:34:18.724Z,8.68
2022-11-21T17:37:42.987Z,7.13
2022-11-21T17:41:08.196Z,8.95
2022-11-21T17:44:31.693Z,7.72
2022-11-21T17:47:54.654Z,9.85
2022-11-21T17:51:19.080Z,9.25
2022-11-21T17:54:43.504Z,8.48
2022-11-21T17:58:06.414Z,10.32
2022-11-21T18:01:29.863Z,10.48
2022-11-21T18:04:52.883Z,14.25
2022-11-21T18:08:15.836Z,14.07
2022-11-21T18:11:40.868Z,13.25
2022-11-21T18:15:03.944Z,13.68
2022-11-21T18:18:29.949Z,12.95
2022-11-21T18:21:56.872Z,12.68
2022-11-21T18:25:21.411Z,11.52
2022-11-21T18:28:46.845Z,13.05
2022-11-21T18:32:09.833Z,12.63
2022-11-21T18:35:32.788Z,10.38
2022-11-21T18:39:02.984Z,9.68
2022-11-21T18:42:29.042Z,10.35
2022-11-21T18:45:53.277Z,9.45
2022-11-21T18:49:16.169Z,10.70
2022-11-21T18:52:43.611Z,10.90
2022-11-21T18:56:11.748Z,8.65
2022-11-21T18:59:34.693Z,9.35
2022-11-21T19:02:59.357Z,8.63
2022-11-21T19:06:23.768Z,10.50
2022-11-21T19:09:46.715Z,10.32
2022-11-21T19:13:09.644Z,9.70
2022-11-21T19:16:34.060Z,9.02
2022-11-21T19:19:58.602Z,9.60
2022-11-21T19:23:21.558Z,7.68
2022-11-21T19:26:44.545Z,7.97
2022-11-21T19:30:08.065Z,7.80
2022-11-21T19:33:31.873Z,7.97
2022-11-21T19:36:56.208Z,8.00
2022-11-21T19:40:19.379Z,8.38
2022-11-21T19:43:43.508Z,8.52
2022-11-21T19:47:06.462Z,8.20
2022-11-21T19:50:29.395Z,9.13
2022-11-21T19:53:55.316Z,7.38
2022-11-21T19:57:18.449Z,7.30
2022-11-21T20:00:41.344Z,8.10
2022-11-21T20:04:06.080Z,7.20
2022-11-21T20:07:29.338Z,5.95
2022-11-21T20:10:53.604Z,6.82
2022-11-21T20:14:21.970Z,7.28
2022-11-21T20:17:50.205Z,7.70
2022-11-21T20:21:14.102Z,6.53
2022-11-21T20:24:41.520Z,6.78
2022-11-21T20:28:11.537Z,6.45
2022-11-21T20:31:36.937Z,6.05
2022-11-21T20:34:59.895Z,6.72
2022-11-21T20:38:24.508Z,6.13
2022-11-21T20:41:48.546Z,6.07
2022-11-21T20:48:57.339Z,5.10
2022-11-21T20:56:04.390Z,5.68
2022-11-21T20:59:28.036Z,5.03
2022-11-21T21:02:52.660Z,6.18
2022-11-21T21:06:16.918Z,6.13
2022-11-21T21:09:40.205Z,5.97
2022-11-21T21:13:03.141Z,6.13
2022-11-21T21:16:29.370Z,5.35
2022-11-21T21:19:53.689Z,5.78
2022-11-21T21:23:16.596Z,5.30
2022-11-21T21:26:43.068Z,6.10
2022-11-21T21:30:07.185Z,7.63
2022-11-21T21:33:30.336Z,7.15
2022-11-21T21:36:54.625Z,7.85
2022-11-21T21:40:18.169Z,15.13
2022-11-21T21:43:41.786Z,11.50
2022-11-21T21:47:04.779Z,9.25
2022-11-21T21:50:27.701Z,8.60
2022-11-21T21:53:53.286Z,8.73
2022-11-21T21:57:16.370Z,9.63
2022-11-21T22:00:39.350Z,8.80
2022-11-21T22:04:04.816Z,7.53
2022-11-21T22:07:27.762Z,8.43
2022-11-21T22:10:52.046Z,9.27
2022-11-21T22:14:16.618Z,8.85
2022-11-21T22:17:39.534Z,6.97
2022-11-21T22:21:03.129Z,7.57
2022-11-21T22:24:27.183Z,7.53
2022-11-21T22:27:51.836Z,6.97
2022-11-21T22:31:15.743Z,5.82
2022-11-21T22:34:38.661Z,7.70
2022-11-21T22:38:02.065Z,5.97
2022-11-21T22:41:26.548Z,6.00
2022-11-21T22:44:50.827Z,7.38
2022-11-21T22:48:15.265Z,6.53
2022-11-21T22:51:38.224Z,5.75
2022-11-21T22:55:01.134Z,6.68
2022-11-21T22:58:24.409Z,5.43
2022-11-21T23:01:48.731Z,5.93
2022-11-21T23:05:11.761Z,5.75
2022-11-21T23:08:35.703Z,5.82
2022-11-21T23:11:58.610Z,6.22
2022-11-21T23:15:21.563Z,5.13
2022-11-21T23:18:46.195Z,5.07
2022-11-21T23:22:09.345Z,5.25
2022-11-21T23:25:32.258Z,5.38
2022-11-21T23:28:55.196Z,5.25
2022-11-21T23:32:18.083Z,5.18
2022-11-21T23:35:43.136Z,4.53
2022-11-21T23:39:06.204Z,4.45
2022-11-21T23:42:29.123Z,4.90
2022-11-21T23:45:52.476Z,3.70
2022-11-21T23:49:15.455Z,4.57
2022-11-21T23:52:39.755Z,4.47
2022-11-21T23:56:02.684Z,4.38
2022-11-21T23:59:25.676Z,3.92
